YET weather

Edson Airport
Edson, Alberta, Canada

Public forecast

Using degrees Celsius for public forecast. Weather courtesy of forecast.io.

METAR (pilot weather report)

Retrieved 2019/08/17 22:00 UTC (44 minutes ago):

CYET 172200Z AUTO 35012KT 9SM -RA SCT065 BKN078 12/08 A2976 RMK SLP097 DENSITY ALT 3600FT

TAF (pilot weather forecast)

Forecast is more than 6 hours old.

Closest forecast is Whitecourt Airport, 41.6 nm (77.0 km) NE. Retrieved 2019/08/17 14:00 UTC (9 hours ago):

TAF CYZU 171410Z 1714/1723 31005KT P6SM FEW004 BKN060 TEMPO 1714/1719 FEW030 SCT060 FM171900 31008KT P6SM BKN050 TEMPO 1722/1723 P6SM -RA RMK NXT FCST BY 171900Z